Shelburn, Indiana
Current Conditions -  °F | °C
As of 5:35 PM on Monday 24 Nov 2014 (Local Time) from KRSV Reporting Station
Clear Clear  
Wind Chill: 30°   Ceiling: Unl
Heat Index: 39°   Visibility: 10mi
Dew Point: 31°   Wind: 15mph
Humidity: 73%   Direction: 260°W
Pressure: 29.83"   Gusts: 25mph
Location:  39.18°N, 87.39°W
Report Text: KRSV 242235Z AUTO 26013G22KT 10SM CLR 04/M01 A2983 RMK AO2 T00381007
Loading
Personal Weather Stations






























Interactive Weather Map New forecast layout! Learn more

10-Day Weather Forecast

Advertisements
Track Severe Weather on mobile